Time;durP1;ratioP1;P1;durP2;ratioP2;P2;SDS_P1;SDS_P2;PMS_P1;PMS_P2;Temp;Humidity;BMP_temperature;BMP_pressure;BME280_temperature;BME280_humidity;BME280_pressure;Samples;Min_cycle;Max_cycle;Signal;HPM_P1;HPM_P2
2020/12/07 00:00:58;;;;;;;35.10;25.85;;;7.60;99.90;;;7.90;76.00;99794.41;5071782;28;20052;-73
2020/12/07 00:03:26;;;;;;;34.75;26.58;;;7.70;99.90;;;7.88;75.78;99783.03;5072050;28;20374;-73
2020/12/07 00:05:54;;;;;;;37.13;26.63;;;7.70;99.90;;;7.95;75.87;99781.22;5090074;28;20491;-73
2020/12/07 00:08:23;;;;;;;40.90;28.77;;;7.70;99.90;;;7.88;75.59;99772.50;5075341;28;20045;-73
2020/12/07 00:10:50;;;;;;;37.30;27.77;;;7.70;99.90;;;7.94;75.78;99772.44;5075203;28;20862;-73
2020/12/07 00:13:18;;;;;;;35.25;27.17;;;7.70;99.90;;;7.89;76.09;99768.13;5075105;28;20048;-73
2020/12/07 00:15:45;;;;;;;35.38;26.92;;;7.70;99.90;;;7.96;75.94;99775.91;5075324;28;20040;-73
2020/12/07 00:18:13;;;;;;;33.55;26.35;;;7.70;99.90;;;8.01;75.74;99771.47;5075053;28;20056;-73
2020/12/07 00:20:44;;;;;;;34.08;25.95;;;7.80;99.90;;;7.98;75.99;99753.09;5074070;28;20169;-73
2020/12/07 00:23:13;;;;;;;32.33;25.53;;;7.80;99.90;;;7.95;76.33;99761.03;5075228;28;20037;-73
2020/12/07 00:25:42;;;;;;;35.53;24.92;;;7.80;99.90;;;7.83;76.33;99729.56;5075462;28;20044;-73
2020/12/07 00:28:09;;;;;;;34.67;26.13;;;7.80;99.90;;;8.03;76.20;99753.03;5074885;28;20511;-73
2020/12/07 00:30:39;;;;;;;34.55;25.38;;;7.80;99.90;;;7.94;76.53;99745.22;5074797;28;20036;-72
2020/12/07 00:33:07;;;;;;;37.80;25.85;;;7.80;99.90;;;7.88;76.53;99742.66;5074835;28;20048;-73
2020/12/07 00:35:34;;;;;;;33.33;26.33;;;7.70;99.90;;;7.83;77.38;99741.84;5074698;28;20510;-73
2020/12/07 00:38:03;;;;;;;36.65;25.88;;;7.60;99.90;;;7.73;77.60;99742.84;5074679;28;20561;-73
2020/12/07 00:40:31;;;;;;;39.53;26.87;;;7.60;99.90;;;7.49;78.18;99709.78;5074605;28;20090;-73
2020/12/07 00:42:59;;;;;;;34.30;26.50;;;7.50;99.90;;;7.58;78.33;99727.22;5090571;28;20481;-72
2020/12/07 00:45:26;;;;;;;35.37;26.80;;;7.50;99.90;;;7.79;78.56;99734.88;5075367;28;20052;-72
2020/12/07 00:47:55;;;;;;;35.33;25.57;;;7.50;99.90;;;7.72;78.00;99688.50;5074833;28;20383;-73
2020/12/07 00:50:22;;;;;;;36.97;26.50;;;7.60;99.90;;;7.97;78.17;99714.50;5074777;28;20047;-73
2020/12/07 00:52:50;;;;;;;35.33;24.83;;;7.70;99.90;;;7.97;77.68;99701.34;5074630;28;20049;-73
2020/12/07 00:55:23;;;;;;;33.13;24.60;;;7.80;99.90;;;7.99;78.20;99699.53;5073237;28;20374;-72
2020/12/07 00:57:53;;;;;;;38.30;25.10;;;7.70;99.90;;;7.38;77.93;99597.69;5073240;28;20071;-72
2020/12/07 01:00:20;;;;;;;37.13;24.60;;;7.80;99.90;;;8.02;78.12;99702.13;5074584;28;20048;-73
2020/12/07 01:02:50;;;;;;;37.53;24.95;;;7.90;99.90;;;7.95;78.50;99697.84;5073354;28;20050;-72
2020/12/07 01:05:18;;;;;;;34.07;25.33;;;7.80;99.90;;;7.86;78.72;99695.31;5090227;28;20121;-72
2020/12/07 01:07:47;;;;;;;37.83;25.90;;;7.70;99.90;;;7.83;79.46;99698.00;5074624;28;20048;-72
2020/12/07 01:10:15;;;;;;;37.77;25.33;;;7.70;99.90;;;7.11;79.06;99567.34;5074074;28;20047;-73
2020/12/07 01:12:43;;;;;;;37.60;25.23;;;7.70;99.90;;;7.76;79.74;99691.03;5074378;28;20055;-73
2020/12/07 01:15:13;;;;;;;39.80;26.17;;;7.60;99.90;;;7.48;80.31;99658.06;5074207;28;20056;-72
2020/12/07 01:17:40;;;;;;;42.38;27.05;;;7.50;99.90;;;7.59;81.05;99681.63;5073582;28;20084;-72
2020/12/07 01:20:13;;;;;;;39.67;27.07;;;7.50;99.90;;;7.66;81.03;99691.19;5073239;28;20437;-73
2020/12/07 01:22:41;;;;;;;40.90;27.27;;;7.50;99.90;;;7.65;81.60;99686.78;5073858;28;20047;-72
2020/12/07 01:25:09;;;;;;;43.57;29.33;;;7.40;99.90;;;7.73;81.36;99684.94;5089747;28;20393;-73
2020/12/07 01:27:45;;;;;;;39.40;27.20;;;7.50;99.90;;;7.75;81.17;99685.81;5074066;28;20367;-73
2020/12/07 01:30:20;;;;;;;39.20;25.93;;;7.50;99.90;;;7.89;81.01;99697.03;5089632;28;20045;-73
2020/12/07 01:32:48;;;;;;;40.50;27.83;;;7.60;99.90;;;7.95;81.27;99694.34;5072419;28;20458;-72
2020/12/07 01:35:15;;;;;;;36.53;25.63;;;7.70;99.90;;;8.05;80.93;99699.44;5073908;28;20048;-73
2020/12/07 01:37:43;;;;;;;35.00;24.50;;;7.70;99.90;;;6.27;80.48;99380.06;5072682;28;20056;-73
2020/12/07 01:40:13;;;;;;;36.78;24.77;;;7.80;99.90;;;8.14;80.20;99707.25;5073865;28;20044;-73
2020/12/07 01:42:41;;;;;;;35.80;24.50;;;8.00;99.90;;;8.27;80.62;99715.88;5089266;28;20504;-73
2020/12/07 01:45:09;;;;;;;31.30;22.10;;;8.00;99.90;;;8.38;80.30;99713.09;5072470;28;20092;-73
2020/12/07 01:47:38;;;;;;;32.03;23.70;;;8.10;99.90;;;8.43;79.63;99708.63;5072435;28;20083;-73
2020/12/07 01:50:10;;;;;;;30.63;21.75;;;8.20;99.90;;;8.41;80.03;99703.38;5073871;28;20044;-73
2020/12/07 01:52:40;;;;;;;31.83;21.48;;;8.20;99.90;;;8.35;80.46;99676.25;5072539;28;20048;-72
2020/12/07 01:55:09;;;;;;;27.60;19.90;;;8.10;99.90;;;7.62;80.88;99563.19;5072500;28;20048;-73
2020/12/07 01:57:47;;;;;;;31.92;20.85;;;8.10;99.90;;;8.17;81.46;99678.22;5072513;28;20051;-72
2020/12/07 02:00:23;;;;;;;32.03;21.48;;;8.00;99.90;;;8.33;81.36;99686.81;5072451;28;20051;-72
2020/12/07 02:03:06;;;;;;;33.80;21.35;;;8.10;99.90;;;7.67;81.50;99569.25;5072546;28;20463;-72
2020/12/07 02:05:35;;;;;;;30.05;20.90;;;8.20;99.90;;;8.18;81.61;99648.38;5072622;28;20405;-72
2020/12/07 02:08:13;;;;;;;29.88;21.25;;;8.20;99.90;;;8.36;82.18;99672.72;5072293;28;20051;-72
2020/12/07 02:10:48;;;;;;;28.48;19.63;;;8.20;99.90;;;8.42;81.87;99662.09;5072255;28;20437;-72
2020/12/07 02:13:21;;;;;;;27.73;19.95;;;8.20;99.90;;;8.61;81.45;99668.81;5072325;28;20386;-72
2020/12/07 02:15:49;;;;;;;24.45;16.73;;;8.30;99.90;;;8.52;81.73;99659.28;5072114;28;20553;-73
2020/12/07 02:18:22;;;;;;;20.88;14.68;;;8.40;99.90;;;8.67;81.43;99669.56;5071779;28;20520;-73
2020/12/07 02:20:50;;;;;;;17.00;13.27;;;8.40;99.90;;;8.67;81.04;99666.94;5072046;28;20048;-73
2020/12/07 02:23:37;;;;;;;12.93;11.07;;;8.50;99.90;;;8.65;81.48;99684.53;5072594;28;20048;-73
2020/12/07 02:26:15;;;;;;;12.05;10.27;;;8.50;99.90;;;8.75;80.89;99674.75;5071723;28;20094;-73
2020/12/07 02:28:43;;;;;;;11.18;8.35;;;8.50;99.90;;;8.73;80.65;99668.63;5087402;28;20045;-73
2020/12/07 02:31:13;;;;;;;11.00;8.43;;;8.50;99.90;;;8.68;80.83;99657.28;5071498;28;20040;-73
2020/12/07 02:33:40;;;;;;;9.30;7.68;;;8.50;99.90;;;8.42;80.41;99604.16;5071490;28;20048;-73
2020/12/07 02:36:11;;;;;;;8.90;7.97;;;8.50;99.90;;;8.66;80.73;99641.50;5071428;28;20044;-73
2020/12/07 02:38:50;;;;;;;9.50;7.68;;;8.50;99.90;;;8.74;80.28;99654.53;5071482;28;20051;-73
2020/12/07 02:41:18;;;;;;;8.50;7.00;;;8.50;99.90;;;6.22;80.59;99250.59;5071138;28;20110;-72
2020/12/07 02:43:46;;;;;;;8.88;7.40;;;8.40;99.90;;;8.49;80.90;99619.81;5088259;28;20055;-72
2020/12/07 02:46:14;;;;;;;8.38;6.60;;;8.40;99.90;;;8.48;81.62;99643.56;5072658;28;20074;-72
2020/12/07 02:48:41;;;;;;;9.50;6.75;;;8.30;99.90;;;8.43;81.61;99641.00;5071397;28;20135;-72
2020/12/07 02:51:12;;;;;;;;;;;8.30;99.90;;;8.50;82.09;99629.44;5071899;28;20048;-72
2020/12/07 02:53:42;;;;;;;9.25;7.25;;;8.30;99.90;;;8.42;82.30;99633.97;5088041;28;20384;-72
2020/12/07 02:56:12;;;;;;;8.35;7.50;;;8.30;99.90;;;8.44;81.77;99620.81;5071497;28;20371;-72
2020/12/07 02:58:50;;;;;;;8.20;7.43;;;8.20;99.90;;;8.58;81.80;99624.06;5071565;28;20040;-72
2020/12/07 03:01:17;;;;;;;8.32;7.47;;;8.40;99.90;;;8.71;81.32;99618.56;5071368;28;20131;-72
2020/12/07 03:03:44;;;;;;;8.43;7.40;;;8.50;99.90;;;8.43;80.86;99558.44;5072363;28;20066;-72
2020/12/07 03:06:13;;;;;;;8.88;7.10;;;8.60;99.90;;;8.82;81.20;99621.03;5070854;28;20037;-72
2020/12/07 03:08:41;;;;;;;9.07;7.40;;;8.70;99.90;;;8.70;80.62;99586.97;5071299;28;20033;-72
2020/12/07 03:11:11;;;;;;;7.88;7.05;;;8.70;99.90;;;8.80;80.55;99622.81;5087786;28;20045;-72
2020/12/07 03:13:40;;;;;;;8.30;7.50;;;8.70;99.90;;;8.90;80.62;99624.41;5070976;28;20052;-72
2020/12/07 03:16:14;;;;;;;8.52;7.72;;;8.70;99.90;;;8.91;79.99;99610.31;5071939;28;20072;-72
2020/12/07 03:18:42;;;;;;;8.20;7.38;;;8.80;99.90;;;8.94;79.89;99605.84;5070504;28;20084;-73
2020/12/07 03:21:13;;;;;;;;;;;8.80;99.90;;;8.83;80.58;99612.19;5071375;28;20135;-72
2020/12/07 03:23:44;;;;;;;8.30;7.50;;;8.70;99.90;;;8.96;80.39;99604.03;5070972;28;19920;-73
2020/12/07 03:26:17;;;;;;;9.20;8.27;;;8.80;99.90;;;8.95;79.59;99598.81;5072203;28;20382;-73
2020/12/07 03:28:44;;;;;;;8.32;7.50;;;8.80;99.90;;;9.04;79.68;99599.50;5070885;28;20047;-73
2020/12/07 03:31:12;;;;;;;9.30;8.15;;;8.90;99.90;;;8.95;79.57;99589.13;5070827;28;20071;-73
2020/12/07 03:33:40;;;;;;;9.50;8.60;;;8.90;99.90;;;8.96;79.52;99582.94;5072130;28;20049;-72
2020/12/07 03:36:09;;;;;;;11.30;7.95;;;8.90;99.90;;;9.01;79.20;99603.97;5072101;28;20123;-72
2020/12/07 03:38:40;;;;;;;9.05;8.27;;;8.80;99.90;;;9.04;79.25;99602.13;5071156;28;20056;-72
2020/12/07 03:41:08;;;;;;;8.45;7.45;;;8.90;99.90;;;8.98;78.75;99582.94;5073979;28;20080;-73
2020/12/07 03:43:39;;;;;;;8.48;7.65;;;8.90;99.90;;;9.05;79.09;99588.06;5074719;28;20462;-73
2020/12/07 03:46:08;;;;;;;9.52;8.63;;;8.90;99.90;;;8.92;78.83;99549.63;5091267;28;20049;-73
2020/12/07 03:48:39;;;;;;;8.60;7.40;;;9.00;99.90;;;9.02;79.02;99558.22;5074354;28;20118;-73
2020/12/07 03:51:13;;;;;;;9.48;8.02;;;9.00;99.90;;;9.13;79.14;99574.72;5074655;28;20045;-73
2020/12/07 03:53:49;;;;;;;10.05;8.05;;;8.90;99.90;;;9.18;79.42;99588.69;5091438;28;20526;-73
2020/12/07 03:56:17;;;;;;;9.27;8.38;;;9.00;99.90;;;9.17;79.71;99586.97;5074787;28;20048;-73
2020/12/07 03:58:45;;;;;;;10.27;8.90;;;9.00;99.90;;;8.86;79.26;99525.16;5074636;28;20064;-72
2020/12/07 04:01:16;;;;;;;9.18;8.15;;;9.00;99.90;;;9.07;79.17;99561.66;5074423;28;20090;-73
2020/12/07 04:03:51;;;;;;;9.48;8.35;;;9.00;99.90;;;9.25;79.62;99578.91;5074622;28;20048;-72
2020/12/07 04:06:24;;;;;;;10.13;9.02;;;9.00;99.90;;;9.29;79.11;99570.03;5075172;28;20041;-73
2020/12/07 04:08:55;;;;;;;11.38;9.27;;;9.10;99.90;;;7.36;79.01;99239.16;5074285;28;20041;-73
2020/12/07 04:11:22;;;;;;;9.40;8.45;;;9.10;99.90;;;9.25;78.89;99566.59;5075496;28;20032;-72
2020/12/07 04:13:53;;;;;;;9.43;8.55;;;9.10;99.90;;;9.21;78.96;99561.38;5075494;28;20044;-72
2020/12/07 04:16:21;;;;;;;9.88;8.90;;;9.10;99.90;;;9.22;79.26;99560.47;5075528;28;20040;-72
2020/12/07 04:18:48;;;;;;;8.68;7.78;;;9.10;99.90;;;9.21;79.00;99564.03;5074773;28;20269;-72
2020/12/07 04:21:15;;;;;;;8.85;8.02;;;9.10;99.90;;;9.08;79.10;99558.09;5075491;28;20052;-72
2020/12/07 04:23:43;;;;;;;8.60;7.78;;;9.10;99.90;;;9.22;79.54;99577.19;5074972;28;20440;-72
2020/12/07 04:26:11;;;;;;;8.73;7.88;;;9.00;99.90;;;8.35;79.99;99450.56;5074953;28;20475;-72
2020/12/07 04:28:42;;;;;;;8.23;7.30;;;8.90;99.90;;;9.03;80.41;99579.31;5075227;28;20036;-72
2020/12/07 04:31:09;;;;;;;8.00;7.20;;;8.80;99.90;;;7.99;81.40;99467.84;5075332;28;20036;-72
2020/12/07 04:33:37;;;;;;;7.88;6.68;;;8.70;99.90;;;8.56;81.61;99573.16;5075110;28;20037;-72
2020/12/07 04:36:04;;;;;;;7.10;6.25;;;8.50;99.90;;;8.52;81.39;99592.53;5073821;28;20485;-72
2020/12/07 04:38:32;;;;;;;7.22;6.00;;;8.40;99.90;;;8.45;81.69;99601.44;5075013;28;20395;-72
2020/12/07 04:41:03;;;;;;;6.07;5.57;;;8.30;99.90;;;8.51;81.80;99594.31;5074971;28;20086;-72
2020/12/07 04:43:32;;;;;;;6.15;5.53;;;8.30;99.90;;;8.61;81.21;99595.91;5074646;28;20036;-72
2020/12/07 04:46:00;;;;;;;7.10;6.22;;;8.40;99.90;;;8.39;81.97;99591.88;5074660;28;20044;-72
2020/12/07 04:48:29;;;;;;;7.95;6.72;;;8.30;99.90;;;8.13;82.63;99534.31;5090459;28;20052;-71
2020/12/07 04:50:59;;;;;;;10.77;6.65;;;8.20;99.90;;;8.28;82.97;99548.19;5074130;28;20045;-72
2020/12/07 04:53:28;;;;;;;7.22;6.35;;;8.20;99.90;;;8.34;83.13;99567.41;5074621;28;20048;-72
2020/12/07 04:55:58;;;;;;;8.55;6.40;;;8.20;99.90;;;8.55;82.72;99574.06;5074709;28;20032;-72
2020/12/07 04:58:26;;;;;;;7.72;5.65;;;8.30;99.90;;;8.66;82.43;99567.69;5073379;28;20108;-72
2020/12/07 05:00:55;;;;;;;5.80;5.25;;;8.50;99.90;;;8.76;82.36;99578.94;5074688;28;20032;-72
2020/12/07 05:03:22;;;;;;;6.53;5.47;;;8.60;99.90;;;8.76;81.46;99578.94;5073231;28;20440;-72
2020/12/07 05:05:52;;;;;;;6.53;5.88;;;8.60;99.90;;;8.79;81.49;99565.69;5073287;28;20048;-88
2020/12/07 05:08:26;;;;;;;6.18;5.57;;;8.70;99.90;;;8.91;81.22;99566.34;5090035;28;20105;-69
2020/12/07 05:11:01;;;;;;;7.10;5.82;;;8.80;99.90;;;9.00;81.04;99567.97;5074414;28;20037;-68
2020/12/07 05:13:34;;;;;;;5.93;4.70;;;8.80;99.90;;;9.01;80.56;99564.41;5074482;28;20048;-68
2020/12/07 05:16:04;;;;;;;5.72;5.20;;;8.80;99.90;;;9.06;80.73;99565.19;5074413;28;20048;-69
2020/12/07 05:18:34;;;;;;;5.57;4.82;;;8.80;99.90;;;9.02;80.22;99564.38;5073999;28;20072;-67
2020/12/07 05:21:03;;;;;;;5.53;5.03;;;8.80;99.90;;;8.97;79.86;99562.72;5074379;28;20044;-69
2020/12/07 05:23:36;;;;;;;5.65;5.18;;;8.80;99.90;;;9.02;79.71;99560.88;5072751;28;20045;-69
2020/12/07 05:26:03;;;;;;;6.13;4.88;;;8.90;99.90;;;9.08;79.54;99555.47;5073937;28;20493;-69
2020/12/07 05:28:42;;;;;;;5.47;4.97;;;8.90;99.90;;;9.12;79.35;99559.78;5074177;28;20068;-68
2020/12/07 05:31:16;;;;;;;5.85;5.22;;;8.90;99.90;;;9.05;79.17;99545.88;5074089;28;20048;-70
2020/12/07 05:33:46;;;;;;;6.97;6.28;;;9.00;99.90;;;9.02;79.33;99572.28;5074051;28;20189;-70
2020/12/07 05:36:14;;;;;;;10.45;7.70;;;8.90;99.90;;;9.13;79.61;99553.63;5072692;28;20102;-69
2020/12/07 05:38:43;;;;;;;7.05;6.35;;;8.90;99.90;;;9.13;79.02;99551.00;5073787;28;20490;-69
2020/12/07 05:41:12;;;;;;;8.65;6.50;;;8.90;99.90;;;9.06;79.04;99575.72;5073992;28;20133;-70
2020/12/07 05:43:40;;;;;;;7.97;7.15;;;8.90;99.90;;;8.96;79.50;99547.81;5089391;28;20052;-69
2020/12/07 05:46:07;;;;;;;7.65;6.88;;;8.80;99.90;;;8.91;79.14;99534.72;5073534;28;20575;-69
2020/12/07 05:48:36;;;;;;;7.80;7.03;;;8.80;99.90;;;8.97;79.60;99542.50;5073648;28;20086;-69
2020/12/07 05:51:06;;;;;;;9.20;8.18;;;8.80;99.90;;;8.94;79.75;99528.53;5073577;28;20482;-69
2020/12/07 05:53:36;;;;;;;8.17;6.97;;;8.70;99.90;;;8.90;79.28;99514.50;5073401;28;20040;-69
2020/12/07 05:56:06;;;;;;;8.80;7.90;;;8.80;99.90;;;8.95;79.27;99517.06;5089179;28;20301;-69
2020/12/07 05:58:41;;;;;;;9.02;7.50;;;8.80;99.90;;;8.96;79.45;99530.22;5073455;28;20044;-69
2020/12/07 06:01:11;;;;;;;8.07;7.30;;;8.70;99.90;;;8.87;79.56;99521.63;5073444;28;20102;-69
2020/12/07 06:03:42;;;;;;;10.55;8.52;;;8.70;99.90;;;8.69;79.80;99499.09;5073383;28;20049;-69
2020/12/07 06:06:10;;;;;;;9.23;8.40;;;8.60;99.90;;;8.71;80.14;99496.47;5073132;28;20549;-69
2020/12/07 06:08:41;;;;;;;9.00;8.13;;;8.60;99.90;;;8.84;79.76;99516.41;5073002;28;20123;-70
2020/12/07 06:11:11;;;;;;;11.63;8.15;;;8.60;99.90;;;8.62;79.86;99491.34;5073056;28;20040;-69
2020/12/07 06:13:40;;;;;;;9.55;8.43;;;8.50;99.90;;;8.54;80.39;99491.50;5072990;28;20067;-69
2020/12/07 06:16:08;;;;;;;9.93;8.90;;;8.40;99.90;;;7.63;80.30;99334.25;5072916;28;20127;-69
2020/12/07 06:18:41;;;;;;;11.40;10.23;;;8.40;99.90;;;8.47;80.76;99492.50;5073137;28;20052;-69
2020/12/07 06:21:12;;;;;;;17.02;12.63;;;8.30;99.90;;;8.40;80.91;99464.53;5072877;28;20106;-69
2020/12/07 06:23:41;;;;;;;;;;;8.40;99.90;;;8.69;80.45;99498.25;5072100;28;20048;-69
2020/12/07 06:26:10;;;;;;;14.77;11.68;;;8.40;99.90;;;8.74;80.07;99499.03;5072852;28;19925;-70
2020/12/07 06:28:41;;;;;;;14.93;12.15;;;8.50;99.90;;;8.63;80.57;99499.22;5072917;28;20041;-70
2020/12/07 06:31:11;;;;;;;13.60;12.20;;;8.40;99.90;;;8.50;80.69;99510.00;5072985;28;20059;-70
2020/12/07 06:33:41;;;;;;;14.32;11.10;;;8.30;99.90;;;8.46;81.28;99506.56;5072578;28;20102;-69
2020/12/07 06:36:27;;;;;;;13.40;10.27;;;8.30;99.90;;;8.38;81.62;99515.53;5071521;28;20292;-72
2020/12/07 06:38:57;;;;;;;14.85;10.85;;;8.20;99.90;;;8.17;82.70;99521.97;5072840;28;20045;-72
2020/12/07 06:41:36;;;;;;;15.52;11.07;;;8.00;99.90;;;8.27;82.53;99526.22;5072395;28;20040;-72
2020/12/07 06:44:09;;;;;;;11.95;10.70;;;8.00;99.90;;;8.26;83.02;99536.78;5072652;28;20490;-72
2020/12/07 06:46:56;;;;;;;11.50;10.30;;;8.00;99.90;;;8.40;83.03;99540.06;5072703;28;20417;-71
2020/12/07 06:49:35;;;;;;;12.13;10.77;;;8.10;99.90;;;8.52;82.76;99539.84;5072393;28;20048;-70
2020/12/07 06:52:10;;;;;;;14.15;10.82;;;8.30;99.90;;;8.31;82.52;99496.31;5072921;28;20048;-69
2020/12/07 06:57:28;;;;;;;15.02;11.10;;;8.40;99.90;;;8.78;82.46;99550.78;5072564;28;20079;-70
2020/12/07 07:00:03;;;;;;;11.98;10.68;;;8.50;99.90;;;8.68;82.13;99546.59;5071182;28;20075;-70
2020/12/07 07:02:31;;;;;;;14.27;11.57;;;8.50;99.90;;;8.59;82.54;99554.66;5072150;28;20056;-70
2020/12/07 07:05:00;;;;;;;14.00;11.70;;;8.50;99.90;;;8.60;82.65;99574.84;5072344;28;20072;-69
2020/12/07 07:07:31;;;;;;;13.60;10.45;;;8.40;99.90;;;8.61;82.98;99564.28;5071220;28;20048;-69
2020/12/07 07:09:59;;;;;;;16.17;11.48;;;8.40;99.90;;;8.61;82.71;99563.41;5072422;28;20402;-70
2020/12/07 07:12:27;;;;;;;13.38;11.38;;;8.40;99.90;;;8.71;82.70;99559.72;5072481;28;20072;-69
2020/12/07 07:14:57;;;;;;;11.43;10.32;;;8.50;99.90;;;8.68;82.52;99550.09;5070483;28;20497;-70
2020/12/07 07:17:27;;;;;;;13.80;10.73;;;8.60;99.90;;;8.52;82.13;99493.28;5071945;28;20041;-69
2020/12/07 07:19:56;;;;;;;12.60;10.35;;;8.70;99.90;;;8.97;81.64;99560.97;5072382;28;20131;-69
2020/12/07 07:22:24;;;;;;;10.85;9.75;;;8.80;99.90;;;9.10;81.37;99561.59;5071788;28;20478;-69
2020/12/07 07:25:01;;;;;;;16.10;9.75;;;8.90;99.90;;;9.06;81.12;99552.88;5071854;28;20041;-70
2020/12/07 07:30:16;;;;;;;10.75;8.88;;;8.90;99.90;;;9.14;80.88;99559.78;5072200;28;20052;-69
2020/12/07 07:32:46;;;;;;;12.20;10.00;;;8.90;99.90;;;9.11;80.93;99555.44;5072123;28;20040;-70
2020/12/07 07:35:15;;;;;;;12.63;8.85;;;8.90;99.90;;;9.10;81.05;99551.91;5071890;28;20052;-70
2020/12/07 07:37:43;;;;;;;9.77;8.82;;;8.90;99.90;;;9.02;80.78;99539.75;5071947;28;20051;-70
2020/12/07 07:40:15;;;;;;;10.35;8.57;;;8.90;99.90;;;8.93;80.65;99542.59;5070659;28;20494;-70
2020/12/07 07:42:47;;;;;;;9.18;8.27;;;8.80;99.90;;;8.96;80.95;99561.84;5072228;28;20440;-69
2020/12/07 07:45:17;;;;;;;10.82;8.38;;;8.80;99.90;;;8.88;81.09;99547.94;5072202;28;20119;-69
2020/12/07 07:47:52;;;;;;;10.45;9.23;;;8.70;99.90;;;8.75;80.88;99540.31;5071953;28;20414;-69
2020/12/07 08:15:48;;;;;;;9.30;8.40;;;8.60;99.90;;;8.84;81.70;99545.41;5071182;28;20502;-70
2020/12/07 08:18:19;;;;;;;12.80;7.30;;;8.60;99.90;;;8.91;82.07;99557.56;5071110;28;20052;-70
2020/12/07 08:20:51;;;;;;;10.65;7.60;;;8.70;99.90;;;8.90;81.50;99561.13;5071435;28;20075;-70
2020/12/07 08:23:27;;;;;;;10.98;7.90;;;8.60;99.90;;;8.90;81.75;99558.47;5071506;28;20046;-69
2020/12/07 08:25:55;;;;;;;7.88;7.05;;;8.60;99.90;;;8.64;81.88;99521.19;5071290;28;20052;-69
2020/12/07 08:28:29;;;;;;;7.57;6.78;;;8.60;99.90;;;8.59;82.01;99505.47;5074632;28;20044;-69
2020/12/07 08:31:12;;;;;;;8.25;7.25;;;8.60;99.90;;;8.82;82.01;99565.66;5075292;28;20048;-70
2020/12/07 08:33:41;;;;;;;;;;;8.60;99.90;;;8.80;81.75;99549.00;5075696;28;20069;-69
2020/12/07 08:36:09;;;;;;;10.45;6.95;;;8.70;99.90;;;8.94;81.91;99565.44;5073840;28;20358;-69
2020/12/07 08:38:39;;;;;;;9.43;8.27;;;8.70;99.90;;;9.02;81.57;99568.78;5075089;28;20055;-70
2020/12/07 08:41:11;;;;;;;8.75;7.85;;;8.90;99.90;;;8.99;82.15;99572.34;5074732;28;20044;-70
2020/12/07 08:43:45;;;;;;;9.52;7.78;;;8.80;99.90;;;9.05;81.54;99574.00;5074962;28;20041;-69
2020/12/07 08:46:15;;;;;;;8.63;7.80;;;8.90;99.90;;;8.45;81.37;99461.81;5074569;28;20033;-70
2020/12/07 08:48:43;;;;;;;9.90;6.70;;;8.90;99.90;;;9.05;81.29;99572.25;5073573;28;20061;-70
2020/12/07 08:51:11;;;;;;;8.98;7.03;;;8.90;99.90;;;8.47;81.28;99468.81;5074524;28;20051;-69
2020/12/07 08:53:40;;;;;;;9.40;6.47;;;9.00;99.90;;;9.04;81.31;99577.53;5074704;28;20092;-69
2020/12/07 08:56:10;;;;;;;7.88;6.57;;;8.90;99.90;;;9.04;81.38;99588.94;5074473;28;20053;-69
2020/12/07 08:58:38;;;;;;;7.97;7.03;;;8.90;99.90;;;9.03;81.24;99584.59;5074605;28;20051;-69
2020/12/07 09:01:08;;;;;;;7.15;6.32;;;8.80;99.90;;;8.98;81.44;99586.44;5074530;28;20044;-69
2020/12/07 09:03:37;;;;;;;7.22;6.53;;;8.80;99.90;;;8.78;81.86;99580.66;5074562;28;20049;-69
2020/12/07 09:06:06;;;;;;;7.75;7.05;;;8.60;99.90;;;8.75;82.27;99585.97;5074203;28;20561;-69
2020/12/07 09:08:34;;;;;;;10.18;7.05;;;8.50;99.90;;;8.79;82.28;99590.31;5074328;28;20048;-69
2020/12/07 09:11:05;;;;;;;9.30;7.28;;;8.60;99.90;;;8.66;82.09;99562.44;5074173;28;20071;-69
2020/12/07 09:13:34;;;;;;;8.50;6.93;;;8.60;99.90;;;8.92;82.21;99585.69;5074413;28;20048;-69
2020/12/07 09:16:02;;;;;;;9.85;7.63;;;8.60;99.90;;;8.93;82.15;99579.50;5073950;28;20083;-69
2020/12/07 09:18:31;;;;;;;8.55;7.07;;;8.70;99.90;;;8.91;82.52;99584.81;5074287;28;20056;-69
2020/12/07 09:20:58;;;;;;;9.88;7.32;;;8.70;99.90;;;8.91;82.03;99583.94;5074236;28;20082;-69
2020/12/07 09:23:26;;;;;;;10.82;6.90;;;8.70;99.90;;;8.84;82.11;99600.78;5074288;28;20047;-71
2020/12/07 09:25:54;;;;;;;8.68;7.57;;;8.70;99.90;;;8.92;82.11;99591.81;5073860;28;20040;-71
2020/12/07 09:28:22;;;;;;;10.55;8.23;;;8.70;99.90;;;8.90;82.56;99598.03;5074013;28;20048;-71
2020/12/07 09:30:49;;;;;;;10.75;8.30;;;8.70;99.90;;;8.95;81.76;99590.91;5072395;28;20037;-71
2020/12/07 09:33:17;;;;;;;11.30;8.95;;;8.70;99.90;;;8.98;82.52;99593.50;5073753;28;20045;-71
2020/12/07 09:35:45;;;;;;;9.65;8.60;;;8.80;99.90;;;9.04;82.11;99603.91;5072670;28;20062;-68
2020/12/07 09:38:12;;;;;;;10.77;9.48;;;8.80;99.90;;;9.03;82.15;99589.88;5073657;28;20390;-69
2020/12/07 09:40:40;;;;;;;12.75;9.52;;;8.80;99.90;;;9.01;81.63;99602.22;5073610;28;20486;-69
2020/12/07 09:43:07;;;;;;;13.98;9.73;;;8.80;99.90;;;8.95;82.36;99599.69;5073394;28;20482;-70
2020/12/07 09:45:35;;;;;;;14.15;11.00;;;8.70;99.90;;;8.97;82.26;99607.56;5073677;28;20086;-69
2020/12/07 09:48:02;;;;;;;13.80;11.70;;;8.70;99.90;;;8.92;82.81;99605.00;5072316;28;20057;-69
2020/12/07 09:50:34;;;;;;;14.85;12.57;;;8.70;99.90;;;8.72;82.44;99587.81;5072337;28;20472;-69
2020/12/07 09:53:03;;;;;;;15.73;13.57;;;8.70;99.90;;;8.73;82.81;99600.09;5073249;28;20461;-69
2020/12/07 09:55:31;;;;;;;19.90;13.82;;;8.60;99.90;;;8.77;82.33;99612.31;5073048;28;20068;-69
2020/12/07 09:57:59;;;;;;;17.52;13.18;;;8.60;99.90;;;8.56;82.93;99578.41;5072078;28;20444;-70
2020/12/07 10:00:26;;;;;;;12.77;11.48;;;8.50;99.90;;;8.52;83.26;99582.00;5071821;28;20041;-69
2020/12/07 10:02:54;;;;;;;16.38;12.27;;;8.40;99.90;;;8.34;83.81;99583.19;5073392;28;20049;-69
2020/12/07 10:05:21;;;;;;;14.57;12.20;;;8.30;99.90;;;8.54;83.24;99602.16;5073189;28;20111;-69
2020/12/07 10:07:50;;;;;;;16.15;12.20;;;8.30;99.90;;;8.49;83.46;99590.84;5073157;28;20044;-70
2020/12/07 10:10:18;;;;;;;15.50;12.35;;;8.20;99.90;;;8.37;83.20;99571.72;5071812;28;20048;-69
2020/12/07 10:12:45;;;;;;;15.82;14.13;;;8.30;99.90;;;8.30;83.58;99557.81;5071852;28;20045;-69
2020/12/07 10:15:13;;;;;;;18.10;13.57;;;8.30;99.90;;;8.47;83.94;99589.13;5071892;28;20055;-69
2020/12/07 10:17:40;;;;;;;19.30;15.85;;;8.30;99.90;;;8.55;83.72;99596.00;5072829;28;20052;-69
2020/12/07 10:20:08;;;;;;;24.92;18.10;;;8.30;99.90;;;8.45;83.87;99578.63;5073073;28;20378;-69
2020/12/07 10:22:35;;;;;;;24.75;18.40;;;8.30;99.90;;;8.40;84.18;99590.13;5072912;28;20131;-69
2020/12/07 10:25:03;;;;;;;27.85;19.67;;;8.20;99.90;;;8.46;84.92;99609.31;5073043;28;20070;-69
2020/12/07 10:27:31;;;;;;;25.98;19.67;;;8.20;99.90;;;8.32;84.76;99597.28;5072956;28;20124;-69
2020/12/07 10:29:59;;;;;;;27.27;20.02;;;8.10;99.90;;;8.44;84.44;99586.56;5072862;28;20490;-69
2020/12/07 10:32:26;;;;;;;23.25;19.60;;;8.20;99.90;;;8.46;84.49;99590.88;5072868;28;20045;-69
2020/12/07 10:34:54;;;;;;;24.02;19.15;;;8.20;99.90;;;8.40;84.58;99590.13;5072787;28;20044;-69
2020/12/07 10:37:21;;;;;;;25.55;19.60;;;8.20;99.90;;;8.30;84.88;99599.94;5072771;28;20040;-70
2020/12/07 10:39:49;;;;;;;32.45;20.25;;;8.10;99.90;;;8.26;84.61;99594.72;5072462;28;20405;-69
2020/12/07 10:42:16;;;;;;;25.80;20.23;;;8.10;99.90;;;8.35;84.79;99597.22;5072909;28;20064;-69
2020/12/07 10:44:47;;;;;;;29.40;20.75;;;8.10;99.90;;;8.26;85.20;99605.28;5072340;28;20068;-69
2020/12/07 10:47:15;;;;;;;25.80;21.20;;;8.10;99.90;;;8.07;86.05;99579.16;5072608;28;20041;-69
2020/12/07 10:49:42;;;;;;;30.38;22.65;;;7.90;99.90;;;8.05;86.05;99578.31;5071840;28;20044;-70
2020/12/07 10:52:09;;;;;;;29.15;22.83;;;8.00;99.90;;;8.26;86.08;99595.63;5072577;28;20143;-70
2020/12/07 10:54:37;;;;;;;32.03;23.52;;;8.00;99.90;;;8.18;85.60;99595.69;5072248;28;20040;-70
2020/12/07 10:57:04;;;;;;;33.25;25.73;;;8.00;99.90;;;8.18;85.84;99605.34;5072443;28;20436;-70
2020/12/07 10:59:32;;;;;;;34.80;26.20;;;8.00;99.90;;;8.18;85.94;99600.97;5072372;28;20048;-70
2020/12/07 11:02:00;;;;;;;36.42;27.35;;;8.00;99.90;;;7.73;85.96;99563.91;5072319;28;20066;-70
2020/12/07 11:04:29;;;;;;;36.17;28.57;;;7.90;99.90;;;7.80;86.11;99582.22;5072046;28;20047;-69
2020/12/07 11:06:58;;;;;;;42.03;31.92;;;7.70;99.90;;;7.71;86.87;99587.59;5072412;28;20068;-71
2020/12/07 11:09:26;;;;;;;39.63;30.85;;;7.60;99.90;;;7.64;87.10;99559.66;5072016;28;20041;-70